sensor_id;sensor_type;location;lat;lon;timestamp;pressure;altitude;pressure_sealevel;temperature;humidity
74659;BME280;63186;51.204;6.536;2023-08-24T00:00:41;101345.34;;;15.48;100.00
74659;BME280;63186;51.204;6.536;2023-08-24T00:03:06;101350.72;;;15.45;100.00
74659;BME280;63186;51.204;6.536;2023-08-24T00:05:35;101345.38;;;15.40;100.00
74659;BME280;63186;51.204;6.536;2023-08-24T00:08:08;101336.25;;;15.39;100.00
74659;BME280;63186;51.204;6.536;2023-08-24T00:10:35;101339.50;;;15.41;100.00
74659;BME280;63186;51.204;6.536;2023-08-24T00:13:01;101343.25;;;15.45;100.00
74659;BME280;63186;51.204;6.536;2023-08-24T00:15:27;101345.81;;;15.51;100.00
74659;BME280;63186;51.204;6.536;2023-08-24T00:17:53;101356.28;;;15.54;100.00
74659;BME280;63186;51.204;6.536;2023-08-24T00:20:18;101351.38;;;15.51;100.00
74659;BME280;63186;51.204;6.536;2023-08-24T00:22:45;101336.03;;;15.44;100.00
74659;BME280;63186;51.204;6.536;2023-08-24T00:25:11;101343.56;;;15.44;100.00
74659;BME280;63186;51.204;6.536;2023-08-24T00:27:36;101341.59;;;15.44;100.00
74659;BME280;63186;51.204;6.536;2023-08-24T00:30:06;101331.81;;;15.38;100.00
74659;BME280;63186;51.204;6.536;2023-08-24T00:32:32;101323.19;;;15.40;100.00
74659;BME280;63186;51.204;6.536;2023-08-24T00:34:59;101313.75;;;15.32;100.00
74659;BME280;63186;51.204;6.536;2023-08-24T00:37:25;101314.22;;;15.17;100.00
74659;BME280;63186;51.204;6.536;2023-08-24T00:39:50;101319.94;;;15.20;100.00
74659;BME280;63186;51.204;6.536;2023-08-24T00:42:15;101315.06;;;15.26;100.00
74659;BME280;63186;51.204;6.536;2023-08-24T00:44:41;101316.69;;;15.27;100.00
74659;BME280;63186;51.204;6.536;2023-08-24T00:47:07;101318.31;;;15.28;100.00
74659;BME280;63186;51.204;6.536;2023-08-24T00:49:33;101318.94;;;15.34;100.00
74659;BME280;63186;51.204;6.536;2023-08-24T00:52:00;101313.41;;;15.34;100.00
74659;BME280;63186;51.204;6.536;2023-08-24T00:54:25;101310.31;;;15.27;100.00
74659;BME280;63186;51.204;6.536;2023-08-24T00:56:51;101302.81;;;15.27;100.00
74659;BME280;63186;51.204;6.536;2023-08-24T00:59:16;101298.88;;;15.28;100.00
74659;BME280;63186;51.204;6.536;2023-08-24T01:01:45;101297.75;;;15.29;100.00
74659;BME280;63186;51.204;6.536;2023-08-24T01:04:12;101307.34;;;15.32;100.00
74659;BME280;63186;51.204;6.536;2023-08-24T01:06:37;101314.84;;;15.31;100.00
74659;BME280;63186;51.204;6.536;2023-08-24T01:09:03;101315.88;;;15.27;100.00
74659;BME280;63186;51.204;6.536;2023-08-24T01:11:49;101314.72;;;15.28;100.00
74659;BME280;63186;51.204;6.536;2023-08-24T01:14:39;101324.00;;;15.23;100.00
74659;BME280;63186;51.204;6.536;2023-08-24T01:17:09;101324.69;;;15.20;100.00
74659;BME280;63186;51.204;6.536;2023-08-24T01:19:38;101324.03;;;15.14;100.00
74659;BME280;63186;51.204;6.536;2023-08-24T01:22:20;101328.28;;;15.20;100.00
74659;BME280;63186;51.204;6.536;2023-08-24T01:24:54;101319.13;;;15.20;100.00
74659;BME280;63186;51.204;6.536;2023-08-24T01:27:23;101310.00;;;15.11;100.00
74659;BME280;63186;51.204;6.536;2023-08-24T01:29:49;101300.38;;;15.08;100.00
74659;BME280;63186;51.204;6.536;2023-08-24T01:32:15;101304.13;;;15.12;100.00
74659;BME280;63186;51.204;6.536;2023-08-24T01:34:40;101299.56;;;15.08;100.00
74659;BME280;63186;51.204;6.536;2023-08-24T01:37:07;101304.13;;;15.12;100.00
74659;BME280;63186;51.204;6.536;2023-08-24T01:39:42;101304.78;;;15.09;100.00
74659;BME280;63186;51.204;6.536;2023-08-24T01:42:10;101294.88;;;15.00;100.00
74659;BME280;63186;51.204;6.536;2023-08-24T01:44:42;101288.50;;;14.90;100.00
74659;BME280;63186;51.204;6.536;2023-08-24T01:47:09;101276.25;;;14.91;100.00
74659;BME280;63186;51.204;6.536;2023-08-24T01:49:37;101281.00;;;15.00;100.00
74659;BME280;63186;51.204;6.536;2023-08-24T01:52:04;101283.44;;;15.01;100.00
74659;BME280;63186;51.204;6.536;2023-08-24T01:54:29;101275.13;;;15.01;100.00
74659;BME280;63186;51.204;6.536;2023-08-24T01:56:55;101277.91;;;15.01;100.00
74659;BME280;63186;51.204;6.536;2023-08-24T01:59:20;101267.31;;;14.95;100.00
74659;BME280;63186;51.204;6.536;2023-08-24T02:01:46;101285.19;;;15.06;100.00
74659;BME280;63186;51.204;6.536;2023-08-24T02:04:11;101265.66;;;15.02;100.00
74659;BME280;63186;51.204;6.536;2023-08-24T02:06:36;101252.94;;;14.92;100.00
74659;BME280;63186;51.204;6.536;2023-08-24T02:09:01;101256.03;;;15.00;100.00
74659;BME280;63186;51.204;6.536;2023-08-24T02:11:27;101268.91;;;15.04;100.00
74659;BME280;63186;51.204;6.536;2023-08-24T02:13:52;101267.75;;;15.05;100.00
74659;BME280;63186;51.204;6.536;2023-08-24T02:16:18;101266.63;;;14.98;100.00
74659;BME280;63186;51.204;6.536;2023-08-24T02:18:43;101276.28;;;15.00;100.00
74659;BME280;63186;51.204;6.536;2023-08-24T02:21:11;101275.91;;;14.93;100.00
74659;BME280;63186;51.204;6.536;2023-08-24T02:23:38;101272.19;;;14.89;100.00
74659;BME280;63186;51.204;6.536;2023-08-24T02:26:03;101273.81;;;14.90;100.00
74659;BME280;63186;51.204;6.536;2023-08-24T02:28:29;101279.69;;;14.88;100.00
74659;BME280;63186;51.204;6.536;2023-08-24T02:30:54;101286.53;;;14.91;100.00
74659;BME280;63186;51.204;6.536;2023-08-24T02:33:20;101280.00;;;14.96;100.00
74659;BME280;63186;51.204;6.536;2023-08-24T02:35:48;101277.22;;;15.04;100.00
74659;BME280;63186;51.204;6.536;2023-08-24T02:38:13;101281.63;;;15.14;100.00
74659;BME280;63186;51.204;6.536;2023-08-24T02:40:39;101270.84;;;15.21;100.00
74659;BME280;63186;51.204;6.536;2023-08-24T02:43:04;101271.78;;;15.25;100.00
74659;BME280;63186;51.204;6.536;2023-08-24T02:45:29;101274.25;;;15.27;100.00
74659;BME280;63186;51.204;6.536;2023-08-24T02:47:54;101270.97;;;15.25;100.00
74659;BME280;63186;51.204;6.536;2023-08-24T02:50:20;101257.28;;;15.28;100.00
74659;BME280;63186;51.204;6.536;2023-08-24T02:52:45;101248.63;;;15.30;100.00
74659;BME280;63186;51.204;6.536;2023-08-24T02:55:11;101237.06;;;15.28;100.00
74659;BME280;63186;51.204;6.536;2023-08-24T02:57:36;101261.50;;;15.34;100.00
74659;BME280;63186;51.204;6.536;2023-08-24T03:00:03;101242.72;;;15.31;100.00
74659;BME280;63186;51.204;6.536;2023-08-24T03:02:28;101256.09;;;15.38;100.00
74659;BME280;63186;51.204;6.536;2023-08-24T03:04:54;101265.06;;;15.43;100.00
74659;BME280;63186;51.204;6.536;2023-08-24T03:07:20;101249.91;;;15.41;100.00
74659;BME280;63186;51.204;6.536;2023-08-24T03:09:46;101260.97;;;15.50;100.00
74659;BME280;63186;51.204;6.536;2023-08-24T03:12:11;101253.28;;;15.55;100.00
74659;BME280;63186;51.204;6.536;2023-08-24T03:14:37;101253.91;;;15.61;100.00
74659;BME280;63186;51.204;6.536;2023-08-24T03:17:02;101259.97;;;15.63;100.00
74659;BME280;63186;51.204;6.536;2023-08-24T03:19:29;101270.06;;;15.67;100.00
74659;BME280;63186;51.204;6.536;2023-08-24T03:21:54;101283.44;;;15.74;100.00
74659;BME280;63186;51.204;6.536;2023-08-24T03:24:20;101268.88;;;15.77;100.00
74659;BME280;63186;51.204;6.536;2023-08-24T03:26:45;101286.44;;;15.90;100.00
74659;BME280;63186;51.204;6.536;2023-08-24T03:31:38;101281.50;;;16.04;100.00
74659;BME280;63186;51.204;6.536;2023-08-24T03:34:03;101315.59;;;16.13;100.00
74659;BME280;63186;51.204;6.536;2023-08-24T03:36:29;101315.41;;;16.18;100.00
74659;BME280;63186;51.204;6.536;2023-08-24T03:38:54;101315.88;;;16.20;100.00
74659;BME280;63186;51.204;6.536;2023-08-24T03:41:19;101317.03;;;16.19;100.00
74659;BME280;63186;51.204;6.536;2023-08-24T03:43:45;101304.28;;;16.18;100.00
74659;BME280;63186;51.204;6.536;2023-08-24T03:46:10;101293.19;;;16.18;100.00
74659;BME280;63186;51.204;6.536;2023-08-24T03:48:35;101275.53;;;16.14;100.00
74659;BME280;63186;51.204;6.536;2023-08-24T03:51:01;101270.38;;;16.04;100.00
74659;BME280;63186;51.204;6.536;2023-08-24T03:53:26;101262.72;;;16.01;100.00
74659;BME280;63186;51.204;6.536;2023-08-24T03:55:52;101252.56;;;16.05;100.00
74659;BME280;63186;51.204;6.536;2023-08-24T03:58:17;101248.00;;;16.00;100.00
74659;BME280;63186;51.204;6.536;2023-08-24T04:00:43;101249.16;;;15.99;100.00
74659;BME280;63186;51.204;6.536;2023-08-24T04:03:09;101246.25;;;15.96;100.00
74659;BME280;63186;51.204;6.536;2023-08-24T04:05:34;101247.25;;;15.91;100.00
74659;BME280;63186;51.204;6.536;2023-08-24T04:08:00;101245.94;;;15.89;100.00
74659;BME280;63186;51.204;6.536;2023-08-24T04:10:29;101244.63;;;15.95;100.00
74659;BME280;63186;51.204;6.536;2023-08-24T04:12:55;101229.91;;;15.94;100.00
74659;BME280;63186;51.204;6.536;2023-08-24T04:15:20;101211.81;;;15.88;100.00
74659;BME280;63186;51.204;6.536;2023-08-24T04:17:45;101211.88;;;15.80;100.00
74659;BME280;63186;51.204;6.536;2023-08-24T04:20:11;101221.66;;;15.86;100.00
74659;BME280;63186;51.204;6.536;2023-08-24T04:22:37;101226.69;;;15.92;100.00
74659;BME280;63186;51.204;6.536;2023-08-24T04:25:02;101213.25;;;15.94;100.00
74659;BME280;63186;51.204;6.536;2023-08-24T04:27:28;101204.13;;;15.94;100.00
74659;BME280;63186;51.204;6.536;2023-08-24T04:29:53;101202.31;;;15.98;100.00
74659;BME280;63186;51.204;6.536;2023-08-24T04:32:19;101190.16;;;16.02;100.00
74659;BME280;63186;51.204;6.536;2023-08-24T04:34:44;101176.63;;;16.01;100.00
74659;BME280;63186;51.204;6.536;2023-08-24T04:37:09;101169.31;;;15.96;100.00
74659;BME280;63186;51.204;6.536;2023-08-24T04:39:35;101170.41;;;16.04;100.00
74659;BME280;63186;51.204;6.536;2023-08-24T04:42:00;101174.75;;;16.14;100.00
74659;BME280;63186;51.204;6.536;2023-08-24T04:44:27;101165.53;;;16.22;100.00
74659;BME280;63186;51.204;6.536;2023-08-24T04:46:53;101147.50;;;16.28;100.00
74659;BME280;63186;51.204;6.536;2023-08-24T04:49:18;101132.72;;;16.36;100.00
74659;BME280;63186;51.204;6.536;2023-08-24T04:51:43;101128.56;;;16.42;100.00
74659;BME280;63186;51.204;6.536;2023-08-24T04:54:08;101113.19;;;16.45;100.00
74659;BME280;63186;51.204;6.536;2023-08-24T04:56:34;101122.19;;;16.42;100.00
74659;BME280;63186;51.204;6.536;2023-08-24T04:59:00;101120.97;;;16.51;100.00
74659;BME280;63186;51.204;6.536;2023-08-24T05:01:27;101135.47;;;16.57;100.00
74659;BME280;63186;51.204;6.536;2023-08-24T05:03:53;101140.69;;;16.59;100.00
74659;BME280;63186;51.204;6.536;2023-08-24T05:06:19;101148.31;;;16.62;100.00
74659;BME280;63186;51.204;6.536;2023-08-24T05:08:45;101157.16;;;16.64;100.00
74659;BME280;63186;51.204;6.536;2023-08-24T05:11:16;101149.28;;;16.66;100.00
74659;BME280;63186;51.204;6.536;2023-08-24T05:13:42;101150.09;;;16.66;100.00
74659;BME280;63186;51.204;6.536;2023-08-24T05:16:11;101151.34;;;16.69;100.00
74659;BME280;63186;51.204;6.536;2023-08-24T05:18:37;101152.69;;;16.71;100.00
74659;BME280;63186;51.204;6.536;2023-08-24T05:21:03;101148.19;;;16.79;100.00
74659;BME280;63186;51.204;6.536;2023-08-24T05:23:29;101146.56;;;16.78;100.00
74659;BME280;63186;51.204;6.536;2023-08-24T05:26:04;101149.44;;;16.81;100.00
74659;BME280;63186;51.204;6.536;2023-08-24T05:28:30;101152.03;;;16.87;100.00
74659;BME280;63186;51.204;6.536;2023-08-24T05:30:56;101145.28;;;16.88;100.00
74659;BME280;63186;51.204;6.536;2023-08-24T05:33:23;101143.81;;;16.90;100.00
74659;BME280;63186;51.204;6.536;2023-08-24T05:35:49;101139.06;;;16.91;100.00
74659;BME280;63186;51.204;6.536;2023-08-24T05:38:15;101130.03;;;16.94;100.00
74659;BME280;63186;51.204;6.536;2023-08-24T05:40:42;101129.34;;;16.97;100.00
74659;BME280;63186;51.204;6.536;2023-08-24T05:43:08;101126.81;;;17.04;100.00
74659;BME280;63186;51.204;6.536;2023-08-24T05:45:34;101128.88;;;17.07;100.00
74659;BME280;63186;51.204;6.536;2023-08-24T05:47:59;101131.34;;;17.08;100.00
74659;BME280;63186;51.204;6.536;2023-08-24T05:50:25;101135.50;;;17.15;100.00
74659;BME280;63186;51.204;6.536;2023-08-24T05:52:50;101135.75;;;17.22;100.00
74659;BME280;63186;51.204;6.536;2023-08-24T05:55:15;101122.88;;;17.29;100.00
74659;BME280;63186;51.204;6.536;2023-08-24T05:57:41;101121.81;;;17.34;100.00
74659;BME280;63186;51.204;6.536;2023-08-24T06:00:06;101127.75;;;17.32;100.00
74659;BME280;63186;51.204;6.536;2023-08-24T06:02:35;101123.91;;;17.37;100.00
74659;BME280;63186;51.204;6.536;2023-08-24T06:05:00;101117.53;;;17.49;100.00
74659;BME280;63186;51.204;6.536;2023-08-24T06:07:26;101113.00;;;17.69;100.00
74659;BME280;63186;51.204;6.536;2023-08-24T06:09:51;101121.78;;;17.95;100.00
74659;BME280;63186;51.204;6.536;2023-08-24T06:12:16;101103.28;;;18.15;100.00
74659;BME280;63186;51.204;6.536;2023-08-24T06:14:42;101090.66;;;18.33;100.00
74659;BME280;63186;51.204;6.536;2023-08-24T06:17:07;101090.19;;;18.59;100.00
74659;BME280;63186;51.204;6.536;2023-08-24T06:19:32;101094.47;;;18.85;100.00
74659;BME280;63186;51.204;6.536;2023-08-24T06:21:57;101086.00;;;19.13;100.00
74659;BME280;63186;51.204;6.536;2023-08-24T06:24:23;101089.78;;;19.56;100.00
74659;BME280;63186;51.204;6.536;2023-08-24T06:26:48;101083.13;;;20.15;99.92
74659;BME280;63186;51.204;6.536;2023-08-24T06:29:13;101085.38;;;20.90;93.70
74659;BME280;63186;51.204;6.536;2023-08-24T06:31:38;101083.84;;;21.42;87.72
74659;BME280;63186;51.204;6.536;2023-08-24T06:34:04;101074.53;;;22.21;84.42
74659;BME280;63186;51.204;6.536;2023-08-24T06:36:29;101084.19;;;22.98;81.66
74659;BME280;63186;51.204;6.536;2023-08-24T06:38:54;101075.69;;;23.42;78.66
74659;BME280;63186;51.204;6.536;2023-08-24T06:41:20;101063.44;;;23.68;78.86
74659;BME280;63186;51.204;6.536;2023-08-24T06:43:45;101066.28;;;23.75;78.38
74659;BME280;63186;51.204;6.536;2023-08-24T06:46:11;101077.34;;;24.30;76.42
74659;BME280;63186;51.204;6.536;2023-08-24T06:48:36;101067.72;;;24.31;76.45
74659;BME280;63186;51.204;6.536;2023-08-24T06:51:04;101059.81;;;24.80;75.22
74659;BME280;63186;51.204;6.536;2023-08-24T06:53:29;101060.22;;;24.93;72.81
74659;BME280;63186;51.204;6.536;2023-08-24T06:55:55;101057.38;;;25.03;71.69
74659;BME280;63186;51.204;6.536;2023-08-24T06:58:21;101054.56;;;24.82;71.33
74659;BME280;63186;51.204;6.536;2023-08-24T07:00:46;101058.97;;;24.69;71.90
74659;BME280;63186;51.204;6.536;2023-08-24T07:03:12;101057.78;;;24.95;73.87
74659;BME280;63186;51.204;6.536;2023-08-24T07:05:37;101056.53;;;25.49;68.44
74659;BME280;63186;51.204;6.536;2023-08-24T07:08:03;101062.13;;;25.85;69.12
74659;BME280;63186;51.204;6.536;2023-08-24T07:10:28;101062.97;;;25.78;69.93
74659;BME280;63186;51.204;6.536;2023-08-24T07:12:54;101053.22;;;26.74;67.52
74659;BME280;63186;51.204;6.536;2023-08-24T07:15:19;101066.88;;;26.79;63.07
74659;BME280;63186;51.204;6.536;2023-08-24T07:17:44;101058.41;;;26.79;65.65
74659;BME280;63186;51.204;6.536;2023-08-24T07:20:10;101058.84;;;27.26;64.90
74659;BME280;63186;51.204;6.536;2023-08-24T07:22:38;101067.31;;;27.64;63.35
74659;BME280;63186;51.204;6.536;2023-08-24T07:25:04;101062.66;;;28.18;62.16
74659;BME280;63186;51.204;6.536;2023-08-24T07:27:34;101050.78;;;28.30;56.41
74659;BME280;63186;51.204;6.536;2023-08-24T07:30:01;101048.72;;;28.04;58.43
74659;BME280;63186;51.204;6.536;2023-08-24T07:32:28;101054.19;;;28.18;62.15
74659;BME280;63186;51.204;6.536;2023-08-24T07:34:54;101045.84;;;28.65;62.00
74659;BME280;63186;51.204;6.536;2023-08-24T07:37:19;101043.44;;;28.87;61.76
74659;BME280;63186;51.204;6.536;2023-08-24T07:39:44;101051.19;;;29.10;60.52
74659;BME280;63186;51.204;6.536;2023-08-24T07:42:10;101052.47;;;29.52;59.33
74659;BME280;63186;51.204;6.536;2023-08-24T07:44:35;101049.69;;;29.49;56.25
74659;BME280;63186;51.204;6.536;2023-08-24T07:47:01;101037.75;;;28.90;59.23
74659;BME280;63186;51.204;6.536;2023-08-24T07:49:26;101046.19;;;28.67;58.31
74659;BME280;63186;51.204;6.536;2023-08-24T07:51:51;101054.22;;;28.99;55.73
74659;BME280;63186;51.204;6.536;2023-08-24T07:54:16;101066.59;;;29.32;56.58
74659;BME280;63186;51.204;6.536;2023-08-24T07:56:42;101076.13;;;29.65;55.74
74659;BME280;63186;51.204;6.536;2023-08-24T07:59:07;101074.53;;;30.24;54.65
74659;BME280;63186;51.204;6.536;2023-08-24T08:01:32;101087.38;;;30.48;53.36
74659;BME280;63186;51.204;6.536;2023-08-24T08:03:58;101080.00;;;31.03;51.73
74659;BME280;63186;51.204;6.536;2023-08-24T08:06:23;101076.53;;;30.43;50.19
74659;BME280;63186;51.204;6.536;2023-08-24T08:08:50;101070.22;;;29.33;53.27
74659;BME280;63186;51.204;6.536;2023-08-24T08:11:16;101059.19;;;29.62;53.37
74659;BME280;63186;51.204;6.536;2023-08-24T08:13:42;101039.78;;;29.13;54.10
74659;BME280;63186;51.204;6.536;2023-08-24T08:16:08;101038.94;;;29.16;51.56
74659;BME280;63186;51.204;6.536;2023-08-24T08:18:36;101040.03;;;28.99;51.70
74659;BME280;63186;51.204;6.536;2023-08-24T08:21:09;101033.28;;;28.39;50.86
74659;BME280;63186;51.204;6.536;2023-08-24T08:23:34;101041.84;;;28.86;54.01
74659;BME280;63186;51.204;6.536;2023-08-24T08:26:00;101031.50;;;28.76;53.46
74659;BME280;63186;51.204;6.536;2023-08-24T08:28:25;101030.47;;;29.13;53.26
74659;BME280;63186;51.204;6.536;2023-08-24T08:30:50;101026.38;;;28.67;55.08
74659;BME280;63186;51.204;6.536;2023-08-24T08:33:15;101029.44;;;28.53;55.45
74659;BME280;63186;51.204;6.536;2023-08-24T08:35:41;101010.03;;;27.94;56.73
74659;BME280;63186;51.204;6.536;2023-08-24T08:38:06;101018.69;;;27.79;57.24
74659;BME280;63186;51.204;6.536;2023-08-24T08:40:36;101026.31;;;27.45;57.10
74659;BME280;63186;51.204;6.536;2023-08-24T08:43:02;101032.75;;;27.49;57.91
74659;BME280;63186;51.204;6.536;2023-08-24T08:45:28;101034.69;;;27.59;57.48
74659;BME280;63186;51.204;6.536;2023-08-24T08:47:57;101022.00;;;27.74;55.65
74659;BME280;63186;51.204;6.536;2023-08-24T08:50:24;101020.84;;;27.65;56.16
74659;BME280;63186;51.204;6.536;2023-08-24T08:52:50;101020.31;;;27.80;55.70
74659;BME280;63186;51.204;6.536;2023-08-24T08:55:15;101012.00;;;27.63;54.15
74659;BME280;63186;51.204;6.536;2023-08-24T08:57:41;101005.00;;;27.40;55.73
74659;BME280;63186;51.204;6.536;2023-08-24T09:00:10;100999.44;;;27.67;55.07
74659;BME280;63186;51.204;6.536;2023-08-24T09:02:38;100990.22;;;27.59;55.72
74659;BME280;63186;51.204;6.536;2023-08-24T09:05:04;100972.69;;;27.75;56.11
74659;BME280;63186;51.204;6.536;2023-08-24T09:07:30;100972.38;;;27.97;55.83
74659;BME280;63186;51.204;6.536;2023-08-24T09:09:55;100968.19;;;28.35;55.29
74659;BME280;63186;51.204;6.536;2023-08-24T09:12:20;100953.97;;;28.89;53.48
74659;BME280;63186;51.204;6.536;2023-08-24T09:14:45;100947.53;;;28.38;54.45
74659;BME280;63186;51.204;6.536;2023-08-24T09:17:19;100932.41;;;27.95;54.79
74659;BME280;63186;51.204;6.536;2023-08-24T09:19:44;100934.19;;;28.12;55.08
74659;BME280;63186;51.204;6.536;2023-08-24T09:22:10;100927.88;;;27.70;55.75
74659;BME280;63186;51.204;6.536;2023-08-24T09:24:35;100917.00;;;27.69;56.30
74659;BME280;63186;51.204;6.536;2023-08-24T09:27:17;100907.09;;;28.11;54.10
74659;BME280;63186;51.204;6.536;2023-08-24T09:29:43;100905.69;;;28.50;54.87
74659;BME280;63186;51.204;6.536;2023-08-24T09:32:12;100899.66;;;28.71;54.45
74659;BME280;63186;51.204;6.536;2023-08-24T09:34:37;100890.19;;;28.58;53.90
74659;BME280;63186;51.204;6.536;2023-08-24T09:37:03;100878.41;;;28.36;54.98
74659;BME280;63186;51.204;6.536;2023-08-24T09:39:31;100890.97;;;28.58;54.49
74659;BME280;63186;51.204;6.536;2023-08-24T09:42:00;100890.59;;;28.33;54.87
74659;BME280;63186;51.204;6.536;2023-08-24T09:44:26;100894.84;;;28.45;55.12
74659;BME280;63186;51.204;6.536;2023-08-24T09:46:52;100896.00;;;28.24;54.31
74659;BME280;63186;51.204;6.536;2023-08-24T09:49:18;100909.94;;;28.11;54.88
74659;BME280;63186;51.204;6.536;2023-08-24T09:51:44;100927.41;;;28.29;54.19
74659;BME280;63186;51.204;6.536;2023-08-24T09:54:10;100922.63;;;28.26;54.34
74659;BME280;63186;51.204;6.536;2023-08-24T09:56:38;100920.03;;;28.39;54.32
74659;BME280;63186;51.204;6.536;2023-08-24T09:59:17;100930.25;;;28.29;51.99
74659;BME280;63186;51.204;6.536;2023-08-24T10:01:48;100932.25;;;28.05;54.58
74659;BME280;63186;51.204;6.536;2023-08-24T10:04:16;100919.84;;;28.23;54.60
74659;BME280;63186;51.204;6.536;2023-08-24T10:06:42;100926.81;;;28.18;54.17
74659;BME280;63186;51.204;6.536;2023-08-24T10:09:15;100922.63;;;28.26;54.57
74659;BME280;63186;51.204;6.536;2023-08-24T10:11:49;100928.16;;;28.37;52.60
74659;BME280;63186;51.204;6.536;2023-08-24T10:14:39;100923.91;;;28.22;53.26
74659;BME280;63186;51.204;6.536;2023-08-24T10:17:07;100931.72;;;27.87;54.40
74659;BME280;63186;51.204;6.536;2023-08-24T10:19:33;100948.91;;;27.69;53.95
74659;BME280;63186;51.204;6.536;2023-08-24T10:22:00;100940.03;;;27.67;55.02
74659;BME280;63186;51.204;6.536;2023-08-24T10:24:27;100947.56;;;27.81;54.26
74659;BME280;63186;51.204;6.536;2023-08-24T10:26:54;100936.59;;;27.83;54.92
74659;BME280;63186;51.204;6.536;2023-08-24T10:31:45;100964.56;;;28.35;54.06
74659;BME280;63186;51.204;6.536;2023-08-24T10:34:11;100956.03;;;28.62;52.85
74659;BME280;63186;51.204;6.536;2023-08-24T10:36:40;100957.34;;;28.57;50.86
74659;BME280;63186;51.204;6.536;2023-08-24T10:39:06;100967.72;;;28.41;53.76
74659;BME280;63186;51.204;6.536;2023-08-24T10:41:51;100962.13;;;28.60;51.10
74659;BME280;63186;51.204;6.536;2023-08-24T10:44:24;100958.88;;;28.38;51.87
74659;BME280;63186;51.204;6.536;2023-08-24T10:49:44;100940.44;;;27.69;54.78
74659;BME280;63186;51.204;6.536;2023-08-24T10:52:17;100929.25;;;27.89;54.32
74659;BME280;63186;51.204;6.536;2023-08-24T10:54:43;100926.28;;;28.00;53.80
74659;BME280;63186;51.204;6.536;2023-08-24T10:57:17;100927.53;;;27.95;53.60
74659;BME280;63186;51.204;6.536;2023-08-24T10:59:44;100933.53;;;28.01;53.39
74659;BME280;63186;51.204;6.536;2023-08-24T11:02:18;100931.34;;;27.85;53.11
74659;BME280;63186;51.204;6.536;2023-08-24T11:05:06;100923.41;;;27.73;52.71
74659;BME280;63186;51.204;6.536;2023-08-24T11:07:32;100913.38;;;27.65;54.20
74659;BME280;63186;51.204;6.536;2023-08-24T11:09:57;100929.34;;;27.82;53.78
74659;BME280;63186;51.204;6.536;2023-08-24T11:12:22;100942.50;;;27.96;53.49
74659;BME280;63186;51.204;6.536;2023-08-24T11:14:49;100931.94;;;28.00;53.72
74659;BME280;63186;51.204;6.536;2023-08-24T11:17:22;100938.34;;;28.04;53.94
74659;BME280;63186;51.204;6.536;2023-08-24T11:19:52;100965.81;;;28.03;54.51
74659;BME280;63186;51.204;6.536;2023-08-24T11:22:19;100985.50;;;27.83;55.62
74659;BME280;63186;51.204;6.536;2023-08-24T11:24:45;100990.59;;;27.62;56.20
74659;BME280;63186;51.204;6.536;2023-08-24T11:27:10;100985.63;;;27.39;56.78
74659;BME280;63186;51.204;6.536;2023-08-24T11:29:36;100987.72;;;27.31;57.41
74659;BME280;63186;51.204;6.536;2023-08-24T11:32:02;100984.41;;;27.40;57.49
74659;BME280;63186;51.204;6.536;2023-08-24T11:34:27;100967.69;;;27.52;57.16
74659;BME280;63186;51.204;6.536;2023-08-24T11:36:53;100963.59;;;27.57;57.65
74659;BME280;63186;51.204;6.536;2023-08-24T11:39:21;100967.88;;;27.72;57.77
74659;BME280;63186;51.204;6.536;2023-08-24T11:44:25;100966.00;;;27.93;57.06
74659;BME280;63186;51.204;6.536;2023-08-24T11:46:50;100978.47;;;27.95;57.31
74659;BME280;63186;51.204;6.536;2023-08-24T11:49:16;100973.28;;;27.90;57.02
74659;BME280;63186;51.204;6.536;2023-08-24T11:51:41;100973.44;;;27.79;57.62
74659;BME280;63186;51.204;6.536;2023-08-24T11:54:06;100972.78;;;27.68;58.39
74659;BME280;63186;51.204;6.536;2023-08-24T11:56:39;100964.53;;;27.47;58.51
74659;BME280;63186;51.204;6.536;2023-08-24T11:59:05;100969.06;;;27.37;58.89
74659;BME280;63186;51.204;6.536;2023-08-24T12:01:31;100958.03;;;27.12;60.19
74659;BME280;63186;51.204;6.536;2023-08-24T12:03:57;100943.75;;;26.85;61.70
74659;BME280;63186;51.204;6.536;2023-08-24T12:06:26;100937.31;;;26.36;64.71
74659;BME280;63186;51.204;6.536;2023-08-24T12:08:52;100929.91;;;25.94;65.18
74659;BME280;63186;51.204;6.536;2023-08-24T12:11:19;100944.59;;;25.53;67.00
74659;BME280;63186;51.204;6.536;2023-08-24T12:13:49;100935.84;;;25.26;69.74
74659;BME280;63186;51.204;6.536;2023-08-24T12:16:16;100923.44;;;24.81;72.25
74659;BME280;63186;51.204;6.536;2023-08-24T12:18:56;100911.00;;;24.50;78.77
74659;BME280;63186;51.204;6.536;2023-08-24T12:21:22;100915.03;;;24.34;83.57
74659;BME280;63186;51.204;6.536;2023-08-24T12:23:59;100903.75;;;24.20;81.65
74659;BME280;63186;51.204;6.536;2023-08-24T12:26:25;100895.28;;;24.17;79.28
74659;BME280;63186;51.204;6.536;2023-08-24T12:28:51;100865.16;;;24.21;79.08
74659;BME280;63186;51.204;6.536;2023-08-24T12:31:18;100843.44;;;24.32;79.20
74659;BME280;63186;51.204;6.536;2023-08-24T12:33:45;100838.66;;;24.43;79.00
74659;BME280;63186;51.204;6.536;2023-08-24T12:36:11;100840.63;;;24.64;79.38
74659;BME280;63186;51.204;6.536;2023-08-24T12:38:37;100840.63;;;24.68;78.89
74659;BME280;63186;51.204;6.536;2023-08-24T12:41:03;100845.44;;;24.74;79.11
74659;BME280;63186;51.204;6.536;2023-08-24T12:43:28;100843.34;;;24.96;78.89
74659;BME280;63186;51.204;6.536;2023-08-24T12:45:53;100834.47;;;25.08;78.59
74659;BME280;63186;51.204;6.536;2023-08-24T12:48:18;100840.88;;;25.16;78.36
74659;BME280;63186;51.204;6.536;2023-08-24T12:50:44;100828.38;;;25.28;77.98
74659;BME280;63186;51.204;6.536;2023-08-24T12:53:09;100833.56;;;25.33;77.59